Time;durP1;ratioP1;P1;durP2;ratioP2;P2;SDS_P1;SDS_P2;PMS_P1;PMS_P2;Temp;Humidity;BMP_temperature;BMP_pressure;BME280_temperature;BME280_humidity;BME280_pressure;Samples;Min_cycle;Max_cycle;Signal;HPM_P1;HPM_P2
2023/01/09 00:01:51;;;;;;;3.92;0.88;;;;;;;5.70;100.00;99458.84;5206607;28;20056;-75
2023/01/09 00:04:22;;;;;;;3.95;1.17;;;;;;;5.70;100.00;99450.84;5207379;28;20136;-75
2023/01/09 00:06:52;;;;;;;2.47;0.75;;;;;;;5.72;100.00;99456.81;5207917;28;20025;-76
2023/01/09 00:09:23;;;;;;;5.10;0.90;;;;;;;5.74;100.00;99451.34;5226744;28;20086;-76
2023/01/09 00:11:54;;;;;;;3.78;1.05;;;;;;;5.77;100.00;99457.13;5211344;28;20024;-74
2023/01/09 00:14:25;;;;;;;2.42;1.40;;;;;;;5.77;100.00;99448.34;5207626;28;20390;-75
2023/01/09 00:16:56;;;;;;;2.80;0.70;;;;;;;5.72;100.00;99452.34;5226180;28;20110;-75
2023/01/09 00:19:26;;;;;;;3.85;1.10;;;;;;;5.67;100.00;99454.69;5216827;28;20060;-75
2023/01/09 00:21:56;;;;;;;3.88;1.17;;;;;;;5.68;100.00;99447.53;5223780;28;20035;-76
2023/01/09 00:24:27;;;;;;;7.38;1.35;;;;;;;5.64;100.00;99455.00;5215055;28;20386;-76
2023/01/09 00:26:57;;;;;;;1.67;0.77;;;;;;;5.62;100.00;99453.50;5211318;28;20021;-76
2023/01/09 00:29:28;;;;;;;5.47;1.63;;;;;;;5.57;100.00;99459.38;5226842;28;20021;-76
2023/01/09 00:31:59;;;;;;;1.85;1.00;;;;;;;5.52;100.00;99463.50;5212100;28;20445;-76
2023/01/09 00:34:29;;;;;;;4.15;1.08;;;;;;;5.46;100.00;99457.84;5213812;28;20065;-76
2023/01/09 00:36:59;;;;;;;5.40;1.48;;;;;;;5.40;100.00;99463.00;5227161;28;20021;-76
2023/01/09 00:39:30;;;;;;;3.63;1.45;;;;;;;5.41;100.00;99459.34;5226826;28;20047;-75
2023/01/09 00:42:00;;;;;;;2.38;1.13;;;;;;;5.40;100.00;99469.16;5226374;28;20025;-76
2023/01/09 00:44:40;;;;;;;6.78;2.83;;;;;;;5.40;100.00;99471.81;5225870;28;20508;-76
2023/01/09 00:47:16;;;;;;;4.07;1.30;;;;;;;5.33;100.00;99464.69;5212538;28;20509;-76
2023/01/09 00:49:49;;;;;;;2.30;1.00;;;;;;;5.31;100.00;99462.16;5205024;28;20041;-76
2023/01/09 00:52:21;;;;;;;8.68;1.70;;;;;;;5.29;100.00;99461.53;5207902;28;20025;-76
2023/01/09 00:54:51;;;;;;;9.35;1.63;;;;;;;5.32;100.00;99474.50;5226601;28;20021;-75
2023/01/09 00:57:22;;;;;;;4.63;2.22;;;;;;;5.27;100.00;99474.16;5226398;28;20039;-76
2023/01/09 00:59:53;;;;;;;3.92;1.38;;;;;;;5.30;100.00;99478.31;5215292;28;20053;-75
2023/01/09 01:02:23;;;;;;;2.28;1.02;;;;;;;5.27;100.00;99471.50;5210479;28;20078;-76
2023/01/09 01:07:43;;;;;;;3.88;1.35;;;;;;;5.36;100.00;99483.78;5225934;28;20441;-76
2023/01/09 01:10:19;;;;;;;3.55;1.40;;;;;;;5.40;100.00;99484.28;5209588;28;20021;-76
2023/01/09 01:12:50;;;;;;;3.42;1.25;;;;;;;5.44;100.00;99480.31;5205418;28;20407;-76
2023/01/09 01:15:21;;;;;;;6.13;1.58;;;;;;;5.41;100.00;99475.31;5206774;28;20056;-76
2023/01/09 01:17:51;;;;;;;5.45;1.30;;;;;;;5.39;100.00;99469.34;5217215;28;20021;-76
2023/01/09 01:20:22;;;;;;;4.20;1.63;;;;;;;5.36;100.00;99473.16;5212076;28;20033;-75
2023/01/09 01:22:52;;;;;;;6.13;1.55;;;;;;;5.33;100.00;99462.84;5226244;28;20028;-76
2023/01/09 01:25:23;;;;;;;3.63;1.40;;;;;;;5.34;100.00;99467.16;5218779;28;20030;-76
2023/01/09 01:27:53;;;;;;;3.75;1.42;;;;;;;5.35;100.00;99474.16;5220185;28;20033;-76
2023/01/09 01:30:26;;;;;;;6.00;1.17;;;;;;;5.36;100.00;99477.63;5215784;28;20041;-76
2023/01/09 01:32:56;;;;;;;6.35;1.35;;;;;;;5.36;100.00;99475.81;5220018;28;20104;-75
2023/01/09 01:35:27;;;;;;;5.18;1.00;;;;;;;5.35;100.00;99482.13;5215198;28;20021;-76
2023/01/09 01:37:57;;;;;;;10.18;1.58;;;;;;;5.28;100.00;99475.81;5221253;28;20034;-76
2023/01/09 01:40:29;;;;;;;5.85;1.42;;;;;;;5.30;100.00;99471.16;5216182;28;20025;-76
2023/01/09 01:42:59;;;;;;;6.13;1.40;;;;;;;5.35;100.00;99479.47;5219374;28;20561;-75
2023/01/09 01:45:31;;;;;;;11.05;3.63;;;;;;;5.40;100.00;99482.47;5204829;28;20148;-76
2023/01/09 01:48:10;;;;;;;3.45;1.55;;;;;;;5.41;100.00;99484.13;5204755;28;20123;-76
2023/01/09 01:50:59;;;;;;;4.63;1.35;;;;;;;5.38;100.00;99481.81;5204382;28;20029;-75
2023/01/09 01:53:39;;;;;;;7.10;1.73;;;;;;;5.41;100.00;99489.44;5216519;28;20417;-76
2023/01/09 01:56:16;;;;;;;5.97;1.25;;;;;;;5.46;100.00;99487.09;5225537;28;20029;-76
2023/01/09 01:58:51;;;;;;;7.00;1.60;;;;;;;5.43;100.00;99481.31;5225038;28;20400;-75
2023/01/09 02:01:24;;;;;;;7.20;1.27;;;;;;;5.46;100.00;99483.63;5224923;28;20108;-76
2023/01/09 02:03:57;;;;;;;9.75;1.35;;;;;;;5.49;100.00;99477.97;5211530;28;20506;-76
2023/01/09 02:06:29;;;;;;;4.40;1.60;;;;;;;5.45;100.00;99480.13;5212785;28;20029;-76
2023/01/09 02:09:03;;;;;;;4.00;1.05;;;;;;;5.43;100.00;99476.00;5210184;28;20370;-76
2023/01/09 02:11:33;;;;;;;5.93;1.00;;;;;;;5.39;100.00;99477.31;5224740;28;20397;-75
2023/01/09 02:14:23;;;;;;;5.95;1.48;;;;;;;5.34;100.00;99483.13;5224551;28;20033;-75
2023/01/09 02:17:20;;;;;;;3.78;1.20;;;;;;;5.31;100.00;99487.94;5208834;28;20033;-75
2023/01/09 02:20:32;;;;;;;10.45;1.35;;;;;;;5.31;100.00;99486.09;5204149;28;20032;-76
2023/01/09 02:23:21;;;;;;;8.20;1.20;;;;;;;5.29;100.00;99481.97;5205085;28;20120;-76
2023/01/09 02:26:11;;;;;;;9.63;1.20;;;;;;;5.30;100.00;99483.63;5225198;28;20028;-75
2023/01/09 02:28:57;;;;;;;4.47;1.13;;;;;;;5.36;100.00;99486.44;5225267;28;20063;-76
2023/01/09 02:31:56;;;;;;;6.45;1.08;;;;;;;5.37;100.00;99485.47;5222912;28;20040;-75
2023/01/09 02:34:44;;;;;;;5.88;1.10;;;;;;;5.44;100.00;99483.78;5216644;28;22400;-76
2023/01/09 02:37:38;;;;;;;6.95;1.25;;;;;;;5.54;100.00;99482.78;5203836;28;20385;-76
2023/01/09 02:40:20;;;;;;;7.78;1.10;;;;;;;5.62;100.00;99480.13;5211035;28;20021;-76
2023/01/09 02:42:54;;;;;;;6.93;0.95;;;;;;;5.68;100.00;99477.63;5211161;28;20028;-76
2023/01/09 02:45:24;;;;;;;8.98;1.23;;;;;;;5.76;100.00;99476.78;5211235;28;20021;-76
2023/01/09 02:47:55;;;;;;;7.32;1.30;;;;;;;5.79;100.00;99478.28;5203767;28;20029;-76
2023/01/09 02:50:34;;;;;;;4.82;1.10;;;;;;;5.81;100.00;99471.78;5203513;28;20037;-75
2023/01/09 02:53:26;;;;;;;2.47;1.05;;;;;;;5.82;100.00;99472.59;5212579;28;20079;-75
2023/01/09 02:56:03;;;;;;;3.10;1.00;;;;;;;5.81;100.00;99477.09;5211141;28;20481;-76
2023/01/09 02:58:36;;;;;;;10.73;2.08;;;;;;;5.84;100.00;99460.81;5223322;28;20021;-76
2023/01/09 03:01:31;;;;;;;5.45;2.17;;;;;;;5.88;100.00;99462.13;5222958;28;20028;-76
2023/01/09 03:04:37;;;;;;;4.73;1.10;;;;;;;5.91;100.00;99461.81;5206010;28;20504;-76
2023/01/09 03:07:24;;;;;;;11.82;1.77;;;;;;;5.93;100.00;99453.69;5206922;28;20270;-76
2023/01/09 03:10:01;;;;;;;3.92;0.93;;;;;;;5.93;100.00;99451.84;5209563;28;20017;-75
2023/01/09 03:12:32;;;;;;;3.75;1.08;;;;;;;5.89;100.00;99442.50;5224448;28;20094;-76
2023/01/09 03:15:06;;;;;;;7.85;1.60;;;;;;;5.93;100.00;99449.19;5221843;28;20032;-75
2023/01/09 03:17:41;;;;;;;7.57;1.10;;;;;;;5.96;100.00;99448.00;5203869;28;20033;-75
2023/01/09 03:20:14;;;;;;;5.88;2.20;;;;;;;5.98;100.00;99454.00;5220945;28;20397;-76
2023/01/09 03:23:00;;;;;;;6.50;1.13;;;;;;;6.01;100.00;99444.81;5212213;28;20033;-75
2023/01/09 03:25:31;;;;;;;7.80;1.40;;;;;;;6.02;100.00;99446.47;5202644;28;20489;-76
2023/01/09 03:28:07;;;;;;;9.50;1.92;;;;;;;6.04;100.00;99452.47;5204757;28;20032;-76
2023/01/09 03:30:38;;;;;;;13.43;1.98;;;;;;;6.03;100.00;99441.00;5206404;28;20071;-76
2023/01/09 03:33:09;;;;;;;6.65;1.35;;;;;;;6.05;100.00;99446.16;5206287;28;20100;-75
2023/01/09 03:35:39;;;;;;;8.07;1.45;;;;;;;6.06;100.00;99445.13;5219324;28;20029;-75
2023/01/09 03:38:10;;;;;;;10.13;1.38;;;;;;;6.09;100.00;99444.81;5208761;28;20045;-75
2023/01/09 03:40:42;;;;;;;4.65;1.52;;;;;;;6.11;100.00;99440.13;5228924;28;20548;-75
2023/01/09 03:43:13;;;;;;;7.15;1.88;;;;;;;6.11;100.00;99438.28;5214358;28;20029;-76
2023/01/09 03:45:43;;;;;;;7.07;1.40;;;;;;;6.19;100.00;99443.59;5213196;28;20075;-76
2023/01/09 03:48:14;;;;;;;7.70;1.40;;;;;;;6.24;100.00;99456.41;5219689;28;20068;-75
2023/01/09 03:50:47;;;;;;;5.28;1.60;;;;;;;6.26;100.00;99440.25;5206674;28;20025;-75
2023/01/09 03:53:18;;;;;;;7.60;1.42;;;;;;;6.36;100.00;99456.84;5207086;28;20060;-75
2023/01/09 03:55:51;;;;;;;9.80;1.75;;;;;;;6.37;100.00;99450.50;5223443;28;20029;-76
2023/01/09 03:58:22;;;;;;;7.00;2.08;;;;;;;6.38;100.00;99454.84;5227814;28;20082;-75
2023/01/09 04:01:02;;;;;;;9.27;1.88;;;;;;;6.40;100.00;99456.31;5220093;28;20025;-76
2023/01/09 04:03:33;;;;;;;7.90;1.52;;;;;;;6.38;100.00;99442.38;5221413;28;20045;-76
2023/01/09 04:06:04;;;;;;;8.88;1.90;;;;;;;6.41;100.00;99452.66;5219174;28;20075;-76
2023/01/09 04:08:34;;;;;;;9.35;1.50;;;;;;;6.44;100.00;99464.81;5207041;28;20124;-76
2023/01/09 04:11:05;;;;;;;8.88;2.13;;;;;;;6.46;100.00;99452.13;5215963;28;20104;-75
2023/01/09 04:13:35;;;;;;;11.40;1.83;;;;;;;6.49;100.00;99457.97;5223732;28;20044;-75
2023/01/09 04:16:06;;;;;;;6.63;1.20;;;;;;;6.50;100.00;99445.47;5206708;28;20022;-75
2023/01/09 04:18:36;;;;;;;5.85;1.38;;;;;;;6.57;100.00;99456.25;5206655;28;20041;-75
2023/01/09 04:21:07;;;;;;;11.57;1.88;;;;;;;6.60;100.00;99440.75;5206643;28;20041;-75
2023/01/09 04:23:37;;;;;;;8.30;1.90;;;;;;;6.59;100.00;99447.09;5206222;28;20435;-75
2023/01/09 04:26:08;;;;;;;8.48;3.50;;;;;;;6.55;100.00;99452.94;5207002;28;20465;-75
2023/01/09 04:28:38;;;;;;;11.50;2.13;;;;;;;6.58;100.00;99442.78;5226892;28;20041;-76
2023/01/09 04:31:09;;;;;;;12.50;2.05;;;;;;;6.66;100.00;99442.69;5212173;28;20100;-74
2023/01/09 04:33:39;;;;;;;8.23;1.50;;;;;;;6.70;100.00;99443.19;5208015;28;20021;-75
2023/01/09 04:36:10;;;;;;;10.40;2.22;;;;;;;6.75;100.00;99448.81;5226731;28;20381;-75
2023/01/09 04:38:41;;;;;;;7.97;1.67;;;;;;;6.77;100.00;99435.31;5226994;28;20036;-75
2023/01/09 04:41:47;;;;;;;10.95;1.75;;;;;;;6.82;100.00;99439.09;5219295;28;20021;-75
2023/01/09 04:44:02;;;;;;;6.43;1.60;;;;;;;6.90;100.00;99438.25;5219726;28;20025;-76
2023/01/09 04:46:32;;;;;;;8.05;1.13;;;;;;;6.91;100.00;99442.56;5214545;28;20079;-75
2023/01/09 04:49:03;;;;;;;10.52;2.28;;;;;;;6.96;100.00;99441.03;5224657;28;20095;-75
2023/01/09 04:51:33;;;;;;;7.65;1.70;;;;;;;6.97;100.00;99436.50;5215335;28;20504;-76
2023/01/09 04:54:05;;;;;;;7.90;1.58;;;;;;;7.04;100.00;99444.66;5209850;28;20057;-76
2023/01/09 04:56:36;;;;;;;12.20;2.25;;;;;;;7.07;100.00;99444.28;5216650;28;20082;-75
2023/01/09 04:59:07;;;;;;;14.65;2.10;;;;;;;7.07;100.00;99445.09;5208439;28;20061;-75
2023/01/09 05:01:38;;;;;;;7.60;2.72;;;;;;;7.05;100.00;99446.31;5204552;28;20021;-75
2023/01/09 05:04:09;;;;;;;7.10;2.08;;;;;;;7.08;100.00;99443.28;5219266;28;20026;-75
2023/01/09 05:06:40;;;;;;;7.72;1.65;;;;;;;7.13;100.00;99441.75;5218289;28;20100;-75
2023/01/09 05:09:10;;;;;;;12.25;1.58;;;;;;;7.15;100.00;99457.56;5205495;28;20474;-76
2023/01/09 05:11:41;;;;;;;9.13;1.88;;;;;;;7.18;100.00;99455.38;5203556;28;20707;-76
2023/01/09 05:14:11;;;;;;;15.57;2.22;;;;;;;7.20;100.00;99460.53;5205750;28;20029;-76
2023/01/09 05:16:42;;;;;;;13.40;1.83;;;;;;;7.22;100.00;99451.31;5222977;28;20025;-76
2023/01/09 05:19:12;;;;;;;15.07;1.90;;;;;;;7.22;100.00;99450.50;5205862;28;20034;-75
2023/01/09 05:21:43;;;;;;;13.32;1.40;;;;;;;7.24;100.00;99456.50;5222551;28;20029;-75
2023/01/09 05:24:13;;;;;;;11.75;1.80;;;;;;;7.25;100.00;99455.50;5225811;28;20023;-76
2023/01/09 05:26:44;;;;;;;18.25;2.67;;;;;;;7.25;100.00;99468.81;5226243;28;20584;-75
2023/01/09 05:29:14;;;;;;;14.05;1.50;;;;;;;7.25;100.00;99450.97;5226163;28;20373;-76
2023/01/09 05:31:45;;;;;;;8.38;1.25;;;;;;;7.28;100.00;99460.47;5223966;28;20024;-75
2023/01/09 05:34:15;;;;;;;16.60;1.83;;;;;;;7.29;100.00;99461.31;5219308;28;20052;-76
2023/01/09 05:36:46;;;;;;;9.52;1.55;;;;;;;7.23;100.00;99460.19;5212780;28;20040;-77
2023/01/09 05:39:16;;;;;;;9.00;1.42;;;;;;;7.16;100.00;99468.06;5224179;28;20028;-76
2023/01/09 05:41:47;;;;;;;9.07;2.67;;;;;;;7.16;100.00;99468.06;5224911;28;20108;-76
2023/01/09 05:44:17;;;;;;;13.55;1.75;;;;;;;7.13;100.00;99488.91;5209642;28;20029;-76
2023/01/09 05:46:48;;;;;;;13.20;2.55;;;;;;;7.13;100.00;99467.56;5214454;28;20025;-76
2023/01/09 05:49:18;;;;;;;18.13;2.15;;;;;;;7.16;100.00;99488.56;5225242;28;20025;-75
2023/01/09 05:51:49;;;;;;;21.42;3.38;;;;;;;7.13;100.00;99489.75;5223232;28;20036;-76
2023/01/09 05:54:20;;;;;;;14.40;1.80;;;;;;;7.15;100.00;99492.25;5225472;28;20424;-76
2023/01/09 05:56:50;;;;;;;18.38;7.05;;;;;;;7.19;100.00;99472.22;5213185;28;20022;-75
2023/01/09 05:59:21;;;;;;;10.43;1.98;;;;;;;7.17;100.00;99484.88;5217503;28;20028;-76
2023/01/09 06:01:53;;;;;;;15.77;3.55;;;;;;;7.18;100.00;99483.91;5202775;28;20032;-75
2023/01/09 06:04:23;;;;;;;22.17;3.63;;;;;;;7.17;100.00;99485.72;5204607;28;20032;-76
2023/01/09 06:06:54;;;;;;;17.52;2.75;;;;;;;7.16;100.00;99489.38;5217967;28;20032;-76
2023/01/09 06:09:25;;;;;;;13.88;1.67;;;;;;;7.18;100.00;99500.72;5204543;28;20021;-75
2023/01/09 06:11:56;;;;;;;11.52;2.65;;;;;;;7.19;100.00;99504.22;5216868;28;20425;-75
2023/01/09 06:14:26;;;;;;;10.80;2.60;;;;;;;7.15;100.00;99500.25;5213282;28;20385;-76
2023/01/09 06:16:57;;;;;;;21.70;9.70;;;;;;;7.12;100.00;99498.75;5207146;28;20029;-75
2023/01/09 06:19:27;;;;;;;8.13;1.42;;;;;;;6.99;100.00;99503.84;5214524;28;20024;-75
2023/01/09 06:21:58;;;;;;;8.95;2.17;;;;;;;7.02;100.00;99503.47;5218907;28;20029;-76
2023/01/09 06:24:28;;;;;;;12.70;2.95;;;;;;;6.97;100.00;99509.34;5203822;28;20037;-76
2023/01/09 06:26:59;;;;;;;11.20;2.30;;;;;;;6.94;100.00;99515.03;5204629;28;20557;-76
2023/01/09 06:29:29;;;;;;;20.25;7.80;;;;;;;6.90;100.00;99505.72;5203713;28;20108;-75
2023/01/09 06:32:00;;;;;;;14.30;1.52;;;;;;;6.88;100.00;99506.91;5224647;28;20032;-76
2023/01/09 06:34:30;;;;;;;15.40;3.00;;;;;;;6.89;100.00;99520.06;5211485;28;20372;-75
2023/01/09 06:37:01;;;;;;;7.95;1.85;;;;;;;6.87;100.00;99510.56;5213343;28;20033;-76
2023/01/09 06:39:31;;;;;;;9.15;2.42;;;;;;;6.96;100.00;99518.34;5222581;28;20350;-74
2023/01/09 06:42:02;;;;;;;3.67;1.35;;;;;;;6.96;100.00;99514.84;5234238;28;20047;-76
2023/01/09 06:44:35;;;;;;;8.60;1.90;;;;;;;6.93;100.00;99526.72;5205973;28;20032;-75
2023/01/09 06:47:05;;;;;;;9.02;1.40;;;;;;;6.97;100.00;99527.16;5202989;28;20045;-75
2023/01/09 06:49:36;;;;;;;13.98;3.60;;;;;;;6.99;100.00;99533.19;5217267;28;20029;-75
2023/01/09 06:52:06;;;;;;;9.23;2.63;;;;;;;6.97;100.00;99536.00;5203833;28;20048;-76
2023/01/09 06:54:37;;;;;;;6.28;1.77;;;;;;;6.98;100.00;99550.19;5203891;28;20033;-75
2023/01/09 06:57:07;;;;;;;6.80;1.38;;;;;;;7.04;100.00;99554.00;5218715;28;20033;-74
2023/01/09 06:59:38;;;;;;;5.40;1.33;;;;;;;6.98;100.00;99561.69;5222903;28;20550;-75
2023/01/09 07:02:18;;;;;;;15.05;3.10;;;;;;;6.96;100.00;99569.00;5207326;28;20082;-75
2023/01/09 07:04:48;;;;;;;11.02;1.80;;;;;;;7.00;100.00;99569.50;5218549;28;20104;-76
2023/01/09 07:07:21;;;;;;;8.45;2.38;;;;;;;6.97;100.00;99580.50;5210208;28;20112;-76
2023/01/09 07:09:51;;;;;;;12.88;2.33;;;;;;;6.93;100.00;99573.88;5208139;28;20026;-76
2023/01/09 07:12:22;;;;;;;9.50;1.40;;;;;;;6.87;100.00;99575.38;5213245;28;20025;-76
2023/01/09 07:14:52;;;;;;;8.93;2.00;;;;;;;6.82;100.00;99580.38;5221879;28;20025;-76
2023/01/09 07:17:23;;;;;;;4.68;1.65;;;;;;;6.88;100.00;99590.38;5208194;28;20071;-76
2023/01/09 07:19:53;;;;;;;10.35;3.17;;;;;;;6.87;100.00;99588.69;5208655;28;20025;-76
2023/01/09 07:22:24;;;;;;;6.60;1.77;;;;;;;6.87;100.00;99606.53;5228459;28;20028;-76
2023/01/09 07:24:54;;;;;;;9.15;2.30;;;;;;;6.86;100.00;99599.53;5224300;28;20504;-76
2023/01/09 07:27:25;;;;;;;11.20;2.50;;;;;;;6.85;100.00;99596.06;5206624;28;20033;-76
2023/01/09 07:29:55;;;;;;;8.85;1.65;;;;;;;6.84;100.00;99602.41;5206653;28;20033;-75
2023/01/09 07:32:26;;;;;;;15.82;5.35;;;;;;;6.88;100.00;99611.72;5207207;28;20029;-76
2023/01/09 07:34:57;;;;;;;32.22;2.85;;;;;;;6.89;100.00;99607.22;5217108;28;20082;-76
2023/01/09 07:37:27;;;;;;;8.05;1.40;;;;;;;6.87;100.00;99611.88;5214190;28;20032;-76
2023/01/09 07:39:57;;;;;;;6.60;1.88;;;;;;;6.90;100.00;99611.53;5227457;28;20025;-76
2023/01/09 07:42:28;;;;;;;6.57;1.30;;;;;;;6.90;100.00;99623.03;5225982;28;20035;-76
2023/01/09 07:44:59;;;;;;;10.32;2.50;;;;;;;6.89;100.00;99628.53;5207187;28;20029;-76
2023/01/09 07:47:29;;;;;;;5.32;2.35;;;;;;;6.93;100.00;99635.19;5206757;28;20517;-76
2023/01/09 07:50:00;;;;;;;9.57;1.40;;;;;;;6.91;100.00;99637.19;5216581;28;20052;-76
2023/01/09 07:52:30;;;;;;;6.38;1.38;;;;;;;6.90;100.00;99633.69;5227398;28;20025;-76
2023/01/09 07:55:01;;;;;;;8.10;1.35;;;;;;;6.96;100.00;99641.00;5215777;28;20025;-76
2023/01/09 07:57:31;;;;;;;8.20;1.38;;;;;;;6.92;100.00;99637.00;5206986;28;20025;-76
2023/01/09 08:00:05;;;;;;;10.63;3.35;;;;;;;6.97;100.00;99650.66;5206078;28;20632;-76
2023/01/09 08:02:36;;;;;;;6.43;1.35;;;;;;;7.04;100.00;99656.16;5214423;28;20021;-76
2023/01/09 08:05:08;;;;;;;7.65;1.80;;;;;;;7.04;100.00;99653.47;5212783;28;20075;-76
2023/01/09 08:07:39;;;;;;;4.60;1.30;;;;;;;7.06;100.00;99653.31;5223788;28;20503;-76
2023/01/09 08:10:10;;;;;;;8.88;1.45;;;;;;;7.07;100.00;99653.13;5224631;28;20150;-75
2023/01/09 08:12:42;;;;;;;4.10;1.17;;;;;;;7.11;100.00;99673.13;5224268;28;20027;-75
2023/01/09 08:15:13;;;;;;;7.05;1.27;;;;;;;7.14;100.00;99661.28;5224879;28;20393;-76
2023/01/09 08:17:45;;;;;;;4.45;1.33;;;;;;;7.13;100.00;99670.25;5226092;28;20024;-76
2023/01/09 08:20:17;;;;;;;7.97;1.17;;;;;;;7.19;100.00;99678.44;5225155;28;20029;-76
2023/01/09 08:22:48;;;;;;;9.70;1.20;;;;;;;7.19;100.00;99674.94;5211055;28;20025;-76
2023/01/09 08:25:19;;;;;;;9.77;2.58;;;;;;;7.21;100.00;99684.41;5203224;28;20030;-76
2023/01/09 08:27:50;;;;;;;9.82;1.48;;;;;;;7.26;100.00;99686.56;5205260;28;20032;-76
2023/01/09 08:30:20;;;;;;;4.28;1.25;;;;;;;7.28;100.00;99697.91;5204502;28;20021;-76
2023/01/09 08:32:53;;;;;;;6.28;1.10;;;;;;;7.24;100.00;99701.91;5204942;28;20084;-76
2023/01/09 08:35:23;;;;;;;6.82;1.20;;;;;;;7.22;100.00;99712.75;5214093;28;20036;-76
2023/01/09 08:37:54;;;;;;;6.70;1.40;;;;;;;7.20;100.00;99693.41;5225241;28;20032;-75
2023/01/09 08:40:24;;;;;;;6.65;1.30;;;;;;;7.21;100.00;99710.25;5225107;28;20485;-76
2023/01/09 08:48:34;;;;;;;5.82;1.33;;;;;;;7.15;100.00;99716.28;5213787;28;20029;-75
2023/01/09 08:51:04;;;;;;;17.55;3.08;;;;;;;7.15;100.00;99716.28;5221779;28;20033;-75
2023/01/09 08:53:35;;;;;;;5.30;1.35;;;;;;;7.15;100.00;99718.94;5212371;28;20128;-75
2023/01/09 08:56:06;;;;;;;7.50;1.33;;;;;;;7.13;100.00;99720.94;5223166;28;20115;-75
2023/01/09 08:58:36;;;;;;;5.95;1.35;;;;;;;7.14;100.00;99727.97;5224906;28;20029;-76
2023/01/09 09:01:07;;;;;;;13.05;2.67;;;;;;;7.14;100.00;99735.97;5223253;28;20500;-76
2023/01/09 09:03:37;;;;;;;10.88;2.35;;;;;;;7.13;100.00;99739.59;5224834;28;20044;-76
2023/01/09 09:06:08;;;;;;;6.03;1.60;;;;;;;7.13;100.00;99745.81;5223839;28;20016;-76
2023/01/09 09:08:38;;;;;;;6.32;1.30;;;;;;;7.15;100.00;99746.44;5231232;28;20020;-76
2023/01/09 09:11:09;;;;;;;6.85;1.83;;;;;;;7.16;100.00;99750.78;5230066;28;20504;-77
2023/01/09 09:13:39;;;;;;;10.95;1.60;;;;;;;7.15;100.00;99759.78;5232795;28;20017;-76
2023/01/09 09:16:10;;;;;;;6.93;1.83;;;;;;;7.14;100.00;99762.63;5230485;28;20059;-76
2023/01/09 09:18:41;;;;;;;4.10;1.40;;;;;;;7.12;100.00;99778.78;5234467;28;20027;-76
2023/01/09 09:21:11;;;;;;;4.95;1.42;;;;;;;7.13;100.00;99779.63;5233899;28;20016;-75
2023/01/09 09:23:43;;;;;;;10.55;3.65;;;;;;;7.15;100.00;99790.97;5235321;28;20483;-76
2023/01/09 09:26:13;;;;;;;13.15;3.72;;;;;;;7.14;100.00;99792.81;5232779;28;20491;-76
2023/01/09 09:28:44;;;;;;;25.52;10.98;;;;;;;7.18;100.00;99793.31;5231675;28;20060;-76
2023/01/09 09:31:14;;;;;;;7.30;2.17;;;;;;;7.20;100.00;99801.97;5235614;28;20043;-76
2023/01/09 09:33:45;;;;;;;13.27;3.42;;;;;;;7.15;100.00;99807.81;5231147;28;20016;-76
2023/01/09 09:36:15;;;;;;;9.82;2.53;;;;;;;7.18;100.00;99815.47;5223633;28;20052;-76
2023/01/09 09:38:46;;;;;;;14.48;4.88;;;;;;;7.18;100.00;99811.97;5224623;28;20028;-75
2023/01/09 09:45:16;;;;;;;6.72;2.33;;;;;;;7.14;100.00;99818.66;5223837;28;20489;-76
2023/01/09 09:48:27;;;;;;;14.88;5.55;;;;;;;7.06;100.00;99822.16;5200740;28;20044;-76
2023/01/09 09:50:57;;;;;;;7.55;2.15;;;;;;;7.08;100.00;99838.81;5200168;28;20068;-76
2023/01/09 09:53:38;;;;;;;18.45;5.25;;;;;;;7.09;100.00;99845.00;5214513;28;20036;-76
2023/01/09 09:56:15;;;;;;;8.15;1.20;;;;;;;7.01;100.00;99843.97;5222313;28;20025;-76
2023/01/09 09:58:52;;;;;;;6.30;1.48;;;;;;;6.85;100.00;99846.66;5223746;28;20128;-76
2023/01/09 10:01:35;;;;;;;4.07;1.73;;;;;;;6.91;100.00;99861.16;5223465;28;20021;-76
2023/01/09 10:04:17;;;;;;;3.70;2.38;;;;;;;6.89;100.00;99872.00;5223522;28;20396;-75
2023/01/09 10:06:56;;;;;;;5.13;2.55;;;;;;;6.85;100.00;99875.97;5223465;28;20473;-75
2023/01/09 10:09:41;;;;;;;3.33;1.90;;;;;;;6.83;100.00;99883.31;5214216;28;20114;-76
2023/01/09 10:12:26;;;;;;;4.05;1.20;;;;;;;6.81;100.00;99881.81;5208280;28;20017;-77
2023/01/09 10:15:18;;;;;;;2.60;1.30;;;;;;;6.82;100.00;99886.97;5223407;28;20029;-75
2023/01/09 10:18:03;;;;;;;6.50;2.88;;;;;;;6.84;100.00;99892.16;5223233;28;20100;-76
2023/01/09 10:20:40;;;;;;;4.27;1.60;;;;;;;6.86;100.00;99898.97;5223175;28;20060;-76
2023/01/09 10:23:38;;;;;;;6.03;1.65;;;;;;;6.96;100.00;99898.81;5223107;28;20465;-76
2023/01/09 10:26:30;;;;;;;4.70;1.35;;;;;;;7.01;100.00;99912.47;5223130;28;20035;-76
2023/01/09 10:29:10;;;;;;;6.90;1.30;;;;;;;7.08;100.00;99913.50;5214484;28;20707;-76
2023/01/09 10:31:58;;;;;;;4.70;1.52;;;;;;;7.06;100.00;99925.31;5221100;28;20043;-76
2023/01/09 10:34:53;;;;;;;6.53;1.67;;;;;;;7.10;100.00;99921.34;5217560;28;20044;-76
2023/01/09 10:37:38;;;;;;;6.72;2.50;;;;;;;7.19;100.00;99923.00;5210427;28;20021;-76
2023/01/09 10:40:17;;;;;;;9.23;4.70;;;;;;;7.26;100.00;99926.66;5207395;28;20028;-76
2023/01/09 10:42:57;;;;;;;8.15;2.28;;;;;;;7.31;100.00;99924.31;5222773;28;20287;-76
2023/01/09 10:45:35;;;;;;;8.85;2.20;;;;;;;7.36;100.00;99926.50;5223433;28;20021;-76
2023/01/09 10:48:20;;;;;;;5.75;1.77;;;;;;;7.32;100.00;99925.97;5210356;28;20055;-75
2023/01/09 10:50:55;;;;;;;4.30;1.80;;;;;;;7.31;100.00;99936.84;5221453;28;20468;-76
2023/01/09 10:53:34;;;;;;;6.80;1.67;;;;;;;7.23;100.00;99935.84;5223033;28;20290;-76
2023/01/09 10:56:38;;;;;;;8.43;2.88;;;;;;;7.24;100.00;99942.84;5209672;28;20049;-76
2023/01/09 10:59:10;;;;;;;14.63;6.32;;;;;;;7.17;100.00;99949.00;5206631;28;20098;-76
2023/01/09 11:01:42;;;;;;;7.47;4.43;;;;;;;7.19;100.00;99950.50;5221136;28;20029;-75
2023/01/09 11:04:25;;;;;;;7.88;2.00;;;;;;;7.14;100.00;99939.50;5223159;28;20067;-76
2023/01/09 11:07:17;;;;;;;5.57;1.80;;;;;;;7.13;100.00;99942.31;5221527;28;20021;-76
2023/01/09 11:09:55;;;;;;;5.78;1.60;;;;;;;7.05;100.00;99950.34;5222553;28;20036;-76
2023/01/09 11:12:29;;;;;;;8.85;1.45;;;;;;;7.03;100.00;99947.84;5215129;28;20059;-76
2023/01/09 11:15:14;;;;;;;6.10;1.60;;;;;;;6.91;100.00;99947.31;5201801;28;20026;-77
2023/01/09 11:17:46;;;;;;;5.93;1.15;;;;;;;6.88;100.00;99950.31;5201096;28;20029;-76
2023/01/09 11:20:21;;;;;;;4.60;1.67;;;;;;;6.95;100.00;99956.66;5201462;28;20029;-76
2023/01/09 11:22:56;;;;;;;57.67;23.17;;;;;;;7.20;100.00;99949.50;5202629;28;20516;-76
2023/01/09 11:25:27;;;;;;;6.63;2.80;;;;;;;7.36;100.00;99951.34;5222871;28;20439;-76
2023/01/09 11:28:01;;;;;;;5.85;1.63;;;;;;;7.33;100.00;99957.03;5222672;28;20103;-75
2023/01/09 11:30:36;;;;;;;13.63;3.58;;;;;;;7.36;100.00;99966.50;5212051;28;20525;-77
2023/01/09 11:33:23;;;;;;;18.15;9.75;;;;;;;7.38;100.00;99964.50;5201832;28;20033;-76
2023/01/09 11:35:59;;;;;;;6.63;1.60;;;;;;;7.28;100.00;99975.38;5202556;28;20026;-76
2023/01/09 11:39:03;;;;;;;9.13;4.75;;;;;;;7.37;100.00;99977.00;5223152;28;20112;-76
2023/01/09 11:41:35;;;;;;;15.85;9.25;;;;;;;7.49;100.00;99978.38;5214367;28;20042;-76
2023/01/09 11:44:13;;;;;;;7.28;2.17;;;;;;;7.61;100.00;99984.19;5201606;28;20100;-76
2023/01/09 11:46:44;;;;;;;4.53;1.88;;;;;;;7.62;100.00;99993.03;5210713;28;20550;-76
2023/01/09 11:49:21;;;;;;;4.75;1.90;;;;;;;7.59;100.00;99993.38;5223420;28;21009;-76
2023/01/09 11:52:14;;;;;;;5.38;1.73;;;;;;;7.50;100.00;99989.88;5214973;28;20424;-76
2023/01/09 11:54:53;;;;;;;6.45;2.17;;;;;;;7.55;100.00;99987.53;5206916;28;20064;-76
2023/01/09 11:57:25;;;;;;;7.80;2.90;;;;;;;7.57;100.00;100000.69;5205359;28;20029;-76
2023/01/09 12:00:09;;;;;;;5.47;2.83;;;;;;;7.51;100.00;99994.19;5215555;28;20040;-77
2023/01/09 12:02:55;;;;;;;6.53;2.00;;;;;;;7.57;100.00;99993.53;5220336;28;20366;-76
2023/01/09 12:05:49;;;;;;;11.85;2.67;;;;;;;7.59;100.00;100012.06;5222816;28;20033;-76
2023/01/09 12:08:27;;;;;;;6.85;2.42;;;;;;;7.48;100.00;99992.72;5226738;28;20109;-76
2023/01/09 12:11:14;;;;;;;4.82;2.05;;;;;;;7.61;100.00;100002.03;5226796;28;20036;-76
2023/01/09 12:14:02;;;;;;;4.72;1.90;;;;;;;7.64;100.00;100002.53;5208207;28;20056;-76
2023/01/09 12:16:39;;;;;;;12.05;2.45;;;;;;;7.81;100.00;100002.53;5224924;28;20021;-76
2023/01/09 12:19:28;;;;;;;7.45;2.50;;;;;;;7.85;100.00;99995.84;5227064;28;20139;-76